createdAt,value
2023-05-08T03:43:12.816Z,13.15
2023-05-08T03:45:41.123Z,12.96
2023-05-08T03:48:09.469Z,13.17
2023-05-08T03:50:37.993Z,12.78
2023-05-08T03:53:07.439Z,13.00
2023-05-08T03:55:34.297Z,13.07
2023-05-08T03:58:15.084Z,13.10
2023-05-08T04:00:50.407Z,13.11
2023-05-08T04:03:36.600Z,13.37
2023-05-08T04:06:09.770Z,13.08
2023-05-08T04:08:42.146Z,13.26
2023-05-08T04:11:35.952Z,13.02
2023-05-08T04:14:07.696Z,12.78
2023-05-08T04:16:43.795Z,13.16
2023-05-08T04:19:15.403Z,13.16
2023-05-08T04:21:43.499Z,13.13
2023-05-08T04:24:16.949Z,13.26
2023-05-08T04:26:46.099Z,13.02
2023-05-08T04:29:14.063Z,12.50
2023-05-08T04:31:41.393Z,12.91
2023-05-08T04:34:09.728Z,13.27
2023-05-08T04:36:37.557Z,13.30
2023-05-08T04:39:05.827Z,13.11
2023-05-08T04:41:33.066Z,13.11
2023-05-08T04:43:59.913Z,13.15
2023-05-08T04:46:26.588Z,12.88
2023-05-08T04:48:54.547Z,13.04
2023-05-08T04:51:21.061Z,13.43
2023-05-08T04:53:48.135Z,13.29
2023-05-08T04:56:15.330Z,13.08
2023-05-08T04:58:41.948Z,13.26
2023-05-08T05:01:09.919Z,13.06
2023-05-08T05:03:36.947Z,13.07
2023-05-08T05:06:04.777Z,13.16
2023-05-08T05:08:34.764Z,13.15
2023-05-08T05:11:01.442Z,12.93
2023-05-08T05:13:28.527Z,12.96
2023-05-08T05:15:56.191Z,12.99
2023-05-08T05:18:25.944Z,13.28
2023-05-08T05:20:54.022Z,13.34
2023-05-08T05:23:20.533Z,13.34
2023-05-08T05:25:47.117Z,13.33
2023-05-08T05:28:13.595Z,13.52
2023-05-08T05:30:40.330Z,13.40
2023-05-08T05:33:07.282Z,13.31
2023-05-08T05:35:34.003Z,13.47
2023-05-08T05:38:01.351Z,13.64
2023-05-08T05:40:28.706Z,13.41
2023-05-08T05:42:55.266Z,13.65
2023-05-08T05:45:21.886Z,13.59
2023-05-08T05:47:50.090Z,13.67
2023-05-08T05:50:18.748Z,13.56
2023-05-08T05:52:48.680Z,13.55
2023-05-08T05:55:16.199Z,13.41
2023-05-08T05:57:42.797Z,13.62
2023-05-08T06:00:11.330Z,13.72
2023-05-08T06:02:48.702Z,13.68
2023-05-08T06:05:17.969Z,13.63
2023-05-08T06:07:44.606Z,13.73
2023-05-08T06:10:11.664Z,13.66
2023-05-08T06:12:38.311Z,13.65
2023-05-08T06:15:06.053Z,13.87
2023-05-08T06:17:33.132Z,14.01
2023-05-08T06:19:59.801Z,13.84
2023-05-08T06:22:26.669Z,13.61
2023-05-08T06:24:53.600Z,13.69
2023-05-08T06:27:21.000Z,13.71
2023-05-08T06:29:48.585Z,13.62
2023-05-08T06:32:15.340Z,13.67
2023-05-08T06:34:41.850Z,13.90
2023-05-08T06:37:08.530Z,13.90
2023-05-08T06:40:11.023Z,13.88
2023-05-08T06:42:40.036Z,14.20
2023-05-08T06:45:07.809Z,14.31
2023-05-08T06:47:34.371Z,14.16
2023-05-08T06:50:01.321Z,14.40
2023-05-08T06:52:27.912Z,14.16
2023-05-08T06:54:54.526Z,14.54
2023-05-08T06:57:27.189Z,14.53
2023-05-08T06:59:54.219Z,14.28
2023-05-08T07:02:20.939Z,14.28
2023-05-08T07:04:47.977Z,14.38
2023-05-08T07:07:15.289Z,14.64
2023-05-08T07:09:41.899Z,14.98
2023-05-08T07:12:13.231Z,15.06
2023-05-08T07:14:39.758Z,14.93
2023-05-08T07:17:09.276Z,14.86
2023-05-08T07:19:36.382Z,15.01
2023-05-08T07:22:03.280Z,14.91
2023-05-08T07:24:29.894Z,15.06
2023-05-08T07:26:56.545Z,14.96
2023-05-08T07:29:23.205Z,15.23
2023-05-08T07:31:52.187Z,15.23
2023-05-08T07:34:18.862Z,15.33
2023-05-08T07:36:45.573Z,15.47
2023-05-08T07:39:12.101Z,15.57
2023-05-08T07:41:40.864Z,15.54
2023-05-08T07:44:07.910Z,15.66
2023-05-08T07:46:34.542Z,15.40
2023-05-08T07:49:03.857Z,15.74
2023-05-08T07:51:33.222Z,15.52
2023-05-08T07:53:59.772Z,15.57
2023-05-08T07:56:27.403Z,15.54
2023-05-08T07:58:54.075Z,15.92
2023-05-08T08:01:20.874Z,16.00
2023-05-08T08:03:50.514Z,16.22
2023-05-08T08:06:18.473Z,16.19
2023-05-08T08:08:45.124Z,16.41
2023-05-08T08:11:11.805Z,16.30
2023-05-08T08:13:42.867Z,16.42
2023-05-08T08:16:09.531Z,16.46
2023-05-08T08:18:36.915Z,16.40
2023-05-08T08:21:10.380Z,16.61
2023-05-08T08:23:37.319Z,16.64
2023-05-08T08:26:06.545Z,16.73
2023-05-08T08:28:33.153Z,16.86
2023-05-08T08:30:59.907Z,16.91
2023-05-08T08:33:28.808Z,16.74
2023-05-08T08:35:55.678Z,16.80
2023-05-08T08:38:22.311Z,17.04
2023-05-08T08:40:49.299Z,17.10
2023-05-08T08:43:15.803Z,16.71
2023-05-08T08:45:42.352Z,16.93
2023-05-08T08:48:12.605Z,16.57
2023-05-08T08:50:44.117Z,16.97
2023-05-08T08:53:22.503Z,17.31
2023-05-08T08:55:52.586Z,17.02
2023-05-08T08:58:31.337Z,17.06
2023-05-08T09:01:00.162Z,17.35
2023-05-08T09:03:27.277Z,17.42
2023-05-08T09:05:54.690Z,17.36
2023-05-08T09:08:23.730Z,17.25
2023-05-08T09:10:50.685Z,17.30
2023-05-08T09:13:19.786Z,17.54
2023-05-08T09:15:46.851Z,17.41
2023-05-08T09:18:19.200Z,17.48
2023-05-08T09:20:46.416Z,17.15
2023-05-08T09:23:17.201Z,17.29
2023-05-08T09:25:44.600Z,17.22
2023-05-08T09:28:22.601Z,17.25
2023-05-08T09:30:54.571Z,17.35
2023-05-08T09:33:26.844Z,17.27
2023-05-08T09:35:55.560Z,17.57
2023-05-08T09:38:35.931Z,17.64
2023-05-08T09:41:14.279Z,17.47
2023-05-08T09:43:42.951Z,17.53
2023-05-08T09:46:26.258Z,17.61
2023-05-08T09:48:57.821Z,17.50
2023-05-08T09:51:26.530Z,17.46
2023-05-08T09:53:55.187Z,17.57
2023-05-08T09:56:39.216Z,18.00
2023-05-08T09:59:22.796Z,18.01
2023-05-08T10:01:49.379Z,17.85
2023-05-08T10:04:16.015Z,18.04
2023-05-08T10:06:42.767Z,18.10
2023-05-08T10:09:12.197Z,18.37
2023-05-08T10:11:40.499Z,18.41
2023-05-08T10:14:07.599Z,18.25
2023-05-08T10:16:43.692Z,18.46
2023-05-08T10:19:18.537Z,18.96
2023-05-08T10:21:53.310Z,18.85
2023-05-08T10:24:25.938Z,18.77
2023-05-08T10:27:07.005Z,19.04
2023-05-08T10:29:43.546Z,19.27
2023-05-08T10:32:10.638Z,19.51
2023-05-08T10:34:40.676Z,19.34
2023-05-08T10:37:10.826Z,19.35
2023-05-08T10:39:37.768Z,19.53
2023-05-08T10:42:04.842Z,19.70
2023-05-08T10:44:31.859Z,19.56
2023-05-08T10:47:05.430Z,19.58
2023-05-08T10:49:45.091Z,19.79
2023-05-08T10:52:34.167Z,19.61
2023-05-08T10:55:19.978Z,19.71
2023-05-08T10:58:08.793Z,19.71
2023-05-08T11:00:53.877Z,19.88
2023-05-08T11:03:31.225Z,19.77
2023-05-08T11:06:00.489Z,19.72
2023-05-08T11:08:28.617Z,19.99
2023-05-08T11:11:05.105Z,19.95
2023-05-08T11:13:37.007Z,19.61
2023-05-08T11:16:06.943Z,19.36
2023-05-08T11:21:06.519Z,19.55
2023-05-08T11:23:33.674Z,19.54
2023-05-08T11:26:01.976Z,19.19
2023-05-08T11:28:32.690Z,19.15
2023-05-08T11:31:04.740Z,19.21
2023-05-08T11:33:37.864Z,19.35
2023-05-08T11:36:17.083Z,19.10
2023-05-08T11:38:54.292Z,19.08
2023-05-08T11:41:24.399Z,19.01
2023-05-08T11:44:00.003Z,19.12
2023-05-08T11:46:40.689Z,18.91
2023-05-08T11:49:16.740Z,19.19
2023-05-08T11:51:48.595Z,18.91
2023-05-08T11:54:17.947Z,19.03
2023-05-08T11:56:51.954Z,19.03
2023-05-08T11:59:18.842Z,19.22
2023-05-08T12:01:53.489Z,19.18
2023-05-08T12:04:27.027Z,19.20
2023-05-08T12:06:57.646Z,19.59
2023-05-08T12:09:24.415Z,19.73
2023-05-08T12:11:57.253Z,19.47
2023-05-08T12:14:23.957Z,19.54
2023-05-08T12:16:51.166Z,19.65
2023-05-08T12:19:17.764Z,19.59
2023-05-08T12:21:48.691Z,19.43
2023-05-08T12:24:18.685Z,19.38
2023-05-08T12:26:46.349Z,19.14
2023-05-08T12:29:12.894Z,19.17
2023-05-08T12:31:39.682Z,19.13
2023-05-08T12:34:07.662Z,19.05
2023-05-08T12:36:35.947Z,19.26
2023-05-08T12:39:11.298Z,19.35
2023-05-08T12:41:48.914Z,19.63
2023-05-08T12:44:26.482Z,19.51
2023-05-08T12:46:55.118Z,19.38
2023-05-08T12:49:29.924Z,19.40
2023-05-08T12:52:09.538Z,19.55
2023-05-08T12:54:38.024Z,19.51
2023-05-08T12:57:15.624Z,19.28
2023-05-08T12:59:43.561Z,19.64
2023-05-08T13:02:18.365Z,19.75
2023-05-08T13:04:45.361Z,19.77
2023-05-08T13:07:12.002Z,19.86
2023-05-08T13:09:39.181Z,19.80
2023-05-08T13:12:06.801Z,20.07
2023-05-08T13:14:33.321Z,20.09
2023-05-08T13:16:59.974Z,19.77
2023-05-08T13:19:27.496Z,19.80
2023-05-08T13:21:54.000Z,20.02
2023-05-08T13:24:20.679Z,20.15
2023-05-08T13:26:47.180Z,20.19
2023-05-08T13:29:13.672Z,19.96
2023-05-08T13:31:40.285Z,20.07
2023-05-08T13:34:06.843Z,20.08
2023-05-08T13:36:33.344Z,20.09
2023-05-08T13:38:59.938Z,19.93
2023-05-08T13:41:26.676Z,19.90
2023-05-08T13:43:53.126Z,19.94
2023-05-08T13:46:19.744Z,20.05
2023-05-08T13:48:46.311Z,19.91
2023-05-08T13:51:12.846Z,19.89
2023-05-08T13:53:39.676Z,20.05
2023-05-08T13:56:06.418Z,20.21
2023-05-08T13:58:32.993Z,20.24
2023-05-08T14:01:07.465Z,20.18
2023-05-08T14:03:41.130Z,20.18
2023-05-08T14:06:07.776Z,20.36
2023-05-08T14:08:35.187Z,20.36
2023-05-08T14:11:03.990Z,20.50
2023-05-08T14:13:30.607Z,20.32
2023-05-08T14:15:57.271Z,20.32
2023-05-08T14:18:23.806Z,20.12
2023-05-08T14:20:57.322Z,20.26
2023-05-08T14:23:24.177Z,19.98
2023-05-08T14:25:50.698Z,19.83
2023-05-08T14:28:17.219Z,20.21
2023-05-08T14:30:43.705Z,20.19
2023-05-08T14:33:10.283Z,20.07
2023-05-08T14:35:36.882Z,19.89
2023-05-08T14:38:04.336Z,19.94
2023-05-08T14:40:30.841Z,19.92
2023-05-08T14:42:57.331Z,19.91
2023-05-08T14:45:23.934Z,20.17
2023-05-08T14:47:50.526Z,19.89
2023-05-08T14:50:17.064Z,20.10
2023-05-08T14:52:43.538Z,20.00
2023-05-08T14:55:11.020Z,20.14
2023-05-08T14:57:37.956Z,20.16
2023-05-08T15:00:05.356Z,19.91
2023-05-08T15:02:31.993Z,20.08
2023-05-08T15:04:58.498Z,20.19
2023-05-08T15:07:24.961Z,19.80
2023-05-08T15:09:53.088Z,19.78
2023-05-08T15:12:19.680Z,19.55
2023-05-08T15:14:46.176Z,19.40
2023-05-08T15:17:12.693Z,19.39
2023-05-08T15:19:39.172Z,19.49
2023-05-08T15:22:05.729Z,19.45
2023-05-08T15:24:32.301Z,19.36
2023-05-08T15:26:59.560Z,19.28
2023-05-08T15:29:29.438Z,19.32
2023-05-08T15:31:56.101Z,19.15
2023-05-08T15:34:24.574Z,19.12
2023-05-08T15:36:52.945Z,19.22
2023-05-08T15:39:19.481Z,19.08
2023-05-08T15:41:45.972Z,18.86
2023-05-08T15:44:13.969Z,18.87
2023-05-08T15:46:40.510Z,19.06
2023-05-08T15:49:07.034Z,19.03
2023-05-08T15:51:33.539Z,18.91
2023-05-08T15:54:00.031Z,18.99
2023-05-08T15:56:26.542Z,18.80
2023-05-08T15:58:53.870Z,18.79
2023-05-08T16:01:20.703Z,18.85
2023-05-08T16:03:47.407Z,18.68
2023-05-08T16:06:13.926Z,18.75
2023-05-08T16:08:40.418Z,18.67
2023-05-08T16:11:07.002Z,18.73
2023-05-08T16:13:33.527Z,18.72
2023-05-08T16:16:04.768Z,18.60
2023-05-08T16:18:31.599Z,18.60
2023-05-08T16:20:58.099Z,18.45
2023-05-08T16:23:24.662Z,18.41
2023-05-08T16:25:51.170Z,18.36
2023-05-08T16:28:17.737Z,18.32
2023-05-08T16:30:44.311Z,18.27
2023-05-08T16:33:12.578Z,18.35
2023-05-08T16:35:40.175Z,18.17
2023-05-08T16:38:06.794Z,18.16
2023-05-08T16:40:33.287Z,18.16
2023-05-08T16:42:59.881Z,18.20
2023-05-08T16:45:26.522Z,18.07
2023-05-08T16:47:53.072Z,18.21
2023-05-08T16:50:19.620Z,18.04
2023-05-08T16:52:46.071Z,17.96
2023-05-08T16:55:13.060Z,17.95
2023-05-08T16:57:39.845Z,18.05
2023-05-08T17:00:07.430Z,17.96
2023-05-08T17:02:34.106Z,17.91
2023-05-08T17:05:19.596Z,17.98
2023-05-08T17:08:06.453Z,17.86
2023-05-08T17:10:54.121Z,17.83
2023-05-08T17:13:43.022Z,18.00
2023-05-08T17:16:30.449Z,17.99
2023-05-08T17:19:17.554Z,17.92
2023-05-08T17:22:04.815Z,17.82
2023-05-08T17:24:54.409Z,17.82
2023-05-08T17:27:41.568Z,17.84
2023-05-08T17:30:29.975Z,17.81
2023-05-08T17:33:17.158Z,17.71
2023-05-08T17:36:04.226Z,17.59
2023-05-08T17:38:51.951Z,17.61
2023-05-08T17:41:38.869Z,17.57
2023-05-08T17:44:25.912Z,17.61
2023-05-08T17:47:12.869Z,17.61
2023-05-08T17:49:59.792Z,17.69
2023-05-08T17:52:46.648Z,17.54
2023-05-08T17:55:34.619Z,17.61
2023-05-08T17:58:21.570Z,17.54
2023-05-08T18:01:08.456Z,17.28
2023-05-08T18:03:55.630Z,17.38
2023-05-08T18:06:43.414Z,17.40
2023-05-08T18:09:30.429Z,17.49
2023-05-08T18:12:17.227Z,17.60
2023-05-08T18:15:07.963Z,17.53
2023-05-08T18:17:54.913Z,17.29
2023-05-08T18:20:41.828Z,17.27
2023-05-08T18:23:28.659Z,17.28
2023-05-08T18:26:16.554Z,17.35
2023-05-08T18:29:03.605Z,17.25
2023-05-08T18:31:51.066Z,17.24
2023-05-08T18:34:37.987Z,17.17
2023-05-08T18:37:25.214Z,17.26
2023-05-08T18:40:13.125Z,16.99
2023-05-08T18:43:00.241Z,17.11
2023-05-08T18:45:47.098Z,17.04
2023-05-08T18:48:37.144Z,17.08
2023-05-08T18:51:23.993Z,17.07
2023-05-08T18:54:10.972Z,17.08
2023-05-08T18:56:57.974Z,16.98
2023-05-08T18:59:44.974Z,17.06
2023-05-08T19:02:31.843Z,17.13
2023-05-08T19:05:18.883Z,17.13
2023-05-08T19:08:05.814Z,17.06
2023-05-08T19:10:52.893Z,17.05
2023-05-08T19:13:40.219Z,17.01
2023-05-08T19:16:28.125Z,17.04
2023-05-08T19:19:17.364Z,16.96
2023-05-08T19:22:04.464Z,16.95
2023-05-08T19:24:53.991Z,16.93
2023-05-08T19:27:40.931Z,16.87
2023-05-08T19:30:27.754Z,16.92
2023-05-08T19:33:14.660Z,16.99
2023-05-08T19:36:04.458Z,16.90
2023-05-08T19:38:51.278Z,16.85
2023-05-08T19:41:38.117Z,16.88
2023-05-08T19:44:26.647Z,16.82
2023-05-08T19:47:13.997Z,16.87
2023-05-08T19:50:00.854Z,16.92
2023-05-08T19:52:48.713Z,16.95
